Waipara, New Zealand
Current Conditions -  °F | °C
As of 12:30 AM on Sunday 21 Dec 2014 (Local Time) from NZCH Reporting Station
Few Clouds Few Clouds  
Wind Chill: 70°   Ceiling: Unl
Heat Index: 70°   Visibility: 6mi
Dew Point: 52°   Wind: 8mph
Humidity: 53%   Direction: 10°N
Pressure: 29.59"   Gusts: NA
Location:  43.06°S, 172.76°E
Report Text: NZCH 201230Z AUTO 01007KT 9999 FEW095/// 21/11 Q1002 NOSIG
Loading
Personal Weather Stations






























Interactive Weather Map New forecast layout! Learn more

10-Day Weather Forecast

Advertisements
Track Severe Weather on mobile